createdAt,value
2023-10-23T00:00:20.048Z,11.54
2023-10-23T00:03:05.223Z,11.56
2023-10-23T00:05:50.214Z,11.51
2023-10-23T00:08:35.278Z,11.44
2023-10-23T00:11:28.589Z,11.40
2023-10-23T00:14:13.520Z,11.39
2023-10-23T00:16:58.647Z,11.44
2023-10-23T00:19:43.620Z,11.52
2023-10-23T00:22:28.918Z,11.61
2023-10-23T00:25:13.977Z,11.54
2023-10-23T00:27:58.776Z,11.43
2023-10-23T00:30:45.034Z,11.44
2023-10-23T00:33:29.954Z,11.35
2023-10-23T00:36:15.057Z,11.42
2023-10-23T00:38:59.786Z,11.25
2023-10-23T00:41:45.695Z,11.31
2023-10-23T00:44:31.293Z,11.26
2023-10-23T00:47:22.198Z,11.19
2023-10-23T00:50:07.813Z,11.24
2023-10-23T00:52:52.624Z,11.06
2023-10-23T00:55:37.731Z,11.05
2023-10-23T00:58:26.294Z,11.05
2023-10-23T01:01:15.655Z,10.97
2023-10-23T01:04:01.567Z,11.03
2023-10-23T01:06:46.957Z,10.97
2023-10-23T01:09:32.100Z,11.01
2023-10-23T01:12:17.385Z,10.92
2023-10-23T01:15:02.721Z,10.80
2023-10-23T01:17:48.972Z,10.71
2023-10-23T01:20:34.450Z,10.69
2023-10-23T01:23:24.602Z,10.65
2023-10-23T01:26:09.403Z,10.53
2023-10-23T01:28:54.456Z,10.49
2023-10-23T01:31:39.755Z,10.48
2023-10-23T01:34:24.962Z,10.52
2023-10-23T01:37:10.091Z,10.48
2023-10-23T01:39:55.126Z,10.44
2023-10-23T01:42:41.453Z,10.46
2023-10-23T01:45:27.379Z,10.32
2023-10-23T01:48:12.542Z,10.29
2023-10-23T01:51:01.379Z,10.30
2023-10-23T01:53:46.199Z,10.36
2023-10-23T01:56:31.284Z,10.35
2023-10-23T01:59:16.369Z,10.33
2023-10-23T02:02:01.567Z,10.30
2023-10-23T02:04:47.100Z,10.32
2023-10-23T02:07:31.917Z,10.26
2023-10-23T02:10:16.975Z,10.30
2023-10-23T02:13:02.102Z,10.31
2023-10-23T02:15:47.160Z,10.27
2023-10-23T02:18:32.265Z,10.12
2023-10-23T02:21:17.514Z,10.12
2023-10-23T02:24:03.000Z,10.13
2023-10-23T02:26:49.079Z,10.12
2023-10-23T02:29:34.055Z,10.09
2023-10-23T02:32:19.187Z,9.88
2023-10-23T02:35:04.394Z,9.98
2023-10-23T02:37:50.747Z,9.97
2023-10-23T02:40:36.026Z,10.09
2023-10-23T02:43:22.157Z,10.11
2023-10-23T02:46:07.530Z,10.02
2023-10-23T02:48:53.249Z,10.06
2023-10-23T02:51:39.297Z,9.99
2023-10-23T02:54:24.956Z,9.85
2023-10-23T02:57:10.081Z,9.82
2023-10-23T02:59:56.767Z,9.75
2023-10-23T03:02:44.559Z,9.68
2023-10-23T03:05:29.881Z,9.63
2023-10-23T03:08:15.746Z,9.68
2023-10-23T03:11:01.142Z,9.61
2023-10-23T03:13:46.541Z,9.62
2023-10-23T03:16:31.645Z,9.65
2023-10-23T03:19:16.857Z,9.73
2023-10-23T03:22:02.023Z,9.76
2023-10-23T03:24:47.103Z,9.70
2023-10-23T03:27:33.178Z,9.66
2023-10-23T03:30:18.477Z,9.74
2023-10-23T03:33:04.021Z,9.67
2023-10-23T03:35:49.006Z,9.58
2023-10-23T03:38:34.318Z,9.51
2023-10-23T03:41:19.458Z,9.52
2023-10-23T03:44:05.292Z,9.45
2023-10-23T03:46:50.230Z,9.40
2023-10-23T03:49:35.197Z,9.48
2023-10-23T03:52:20.291Z,9.48
2023-10-23T03:55:05.820Z,9.43
2023-10-23T03:57:50.877Z,9.29
2023-10-23T04:00:35.918Z,9.25
2023-10-23T04:03:20.872Z,9.28
2023-10-23T04:06:05.905Z,9.22
2023-10-23T04:08:53.719Z,9.10
2023-10-23T04:11:38.861Z,9.15
2023-10-23T04:14:23.812Z,9.02
2023-10-23T04:17:08.741Z,9.07
2023-10-23T04:19:53.672Z,9.06
2023-10-23T04:22:38.864Z,8.96
2023-10-23T04:25:23.979Z,8.95
2023-10-23T04:28:08.979Z,8.99
2023-10-23T04:30:54.449Z,9.01
2023-10-23T04:33:39.747Z,8.96
2023-10-23T04:36:24.868Z,8.89
2023-10-23T04:39:09.980Z,8.85
2023-10-23T04:41:55.265Z,8.91
2023-10-23T04:44:40.610Z,8.83
2023-10-23T04:47:25.621Z,8.76
2023-10-23T04:50:13.144Z,8.77
2023-10-23T04:53:00.472Z,8.79
2023-10-23T04:55:45.354Z,8.77
2023-10-23T04:58:30.887Z,8.64
2023-10-23T05:01:17.354Z,8.63
2023-10-23T05:04:02.328Z,8.60
2023-10-23T05:06:47.199Z,8.56
2023-10-23T05:09:32.274Z,8.50
2023-10-23T05:12:17.470Z,8.54
2023-10-23T05:15:03.654Z,8.52
2023-10-23T05:17:48.945Z,8.59
2023-10-23T05:20:35.030Z,8.62
2023-10-23T05:23:20.261Z,8.56
2023-10-23T05:26:05.448Z,8.62
2023-10-23T05:28:52.573Z,8.55
2023-10-23T05:31:37.634Z,8.47
2023-10-23T05:34:22.576Z,8.40
2023-10-23T05:37:07.424Z,8.26
2023-10-23T05:39:52.393Z,8.30
2023-10-23T05:42:37.636Z,8.31
2023-10-23T05:45:22.582Z,8.29
2023-10-23T05:48:07.501Z,8.28
2023-10-23T05:51:00.191Z,8.23
2023-10-23T05:53:46.521Z,8.28
2023-10-23T05:56:31.844Z,8.23
2023-10-23T05:59:16.760Z,8.25
2023-10-23T06:02:01.983Z,8.32
2023-10-23T06:04:46.954Z,8.22
2023-10-23T06:07:32.007Z,8.18
2023-10-23T06:10:16.988Z,8.19
2023-10-23T06:13:01.997Z,8.17
2023-10-23T06:15:47.125Z,8.18
2023-10-23T06:18:36.688Z,8.10
2023-10-23T06:21:21.807Z,8.05
2023-10-23T06:24:06.860Z,8.01
2023-10-23T06:26:52.031Z,8.07
2023-10-23T06:29:37.242Z,8.20
2023-10-23T06:32:22.429Z,8.29
2023-10-23T06:35:07.772Z,8.37
2023-10-23T06:37:53.014Z,8.37
2023-10-23T06:40:38.268Z,8.37
2023-10-23T06:43:23.238Z,8.50
2023-10-23T06:46:08.518Z,8.54
2023-10-23T06:48:53.582Z,8.57
2023-10-23T06:51:38.670Z,8.63
2023-10-23T06:54:24.953Z,8.72
2023-10-23T06:57:10.060Z,8.76
2023-10-23T06:59:56.077Z,8.84
2023-10-23T07:02:41.430Z,9.02
2023-10-23T07:05:26.403Z,9.14
2023-10-23T07:08:11.465Z,9.14
2023-10-23T07:10:56.548Z,9.21
2023-10-23T07:13:41.526Z,9.31
2023-10-23T07:16:27.013Z,9.25
2023-10-23T07:19:12.264Z,9.28
2023-10-23T07:21:57.335Z,9.34
2023-10-23T07:24:42.099Z,9.45
2023-10-23T07:27:28.838Z,9.65
2023-10-23T07:30:16.152Z,9.72
2023-10-23T07:33:00.962Z,9.81
2023-10-23T07:35:53.442Z,10.04
2023-10-23T07:38:41.994Z,9.94
2023-10-23T07:41:27.226Z,9.87
2023-10-23T07:44:12.350Z,9.93
2023-10-23T07:46:57.720Z,10.22
2023-10-23T07:49:42.554Z,10.34
2023-10-23T07:52:27.752Z,10.46
2023-10-23T07:55:12.488Z,10.57
2023-10-23T07:57:57.428Z,10.48
2023-10-23T08:00:42.552Z,10.27
2023-10-23T08:03:27.656Z,10.41
2023-10-23T08:06:13.613Z,10.55
2023-10-23T08:08:58.770Z,10.34
2023-10-23T08:11:43.932Z,10.42
2023-10-23T08:14:28.787Z,10.55
2023-10-23T08:17:24.055Z,10.31
2023-10-23T08:20:16.135Z,10.33
2023-10-23T08:23:01.132Z,10.49
2023-10-23T08:25:45.961Z,10.57
2023-10-23T08:28:49.233Z,10.54
2023-10-23T08:31:40.084Z,10.29
2023-10-23T08:34:26.097Z,10.63
2023-10-23T08:37:11.655Z,10.61
2023-10-23T08:39:56.728Z,10.52
2023-10-23T08:42:42.146Z,10.46
2023-10-23T08:45:26.982Z,10.55
2023-10-23T08:48:12.320Z,10.45
2023-10-23T08:50:58.420Z,10.43
2023-10-23T08:54:06.875Z,10.47
2023-10-23T08:57:00.593Z,10.41
2023-10-23T08:59:45.761Z,10.90
2023-10-23T09:02:32.546Z,10.84
2023-10-23T09:05:18.641Z,10.76
2023-10-23T09:08:07.266Z,10.92
2023-10-23T09:11:04.292Z,10.87
2023-10-23T09:13:49.433Z,11.03
2023-10-23T09:16:34.705Z,11.33
2023-10-23T09:19:27.342Z,11.38
2023-10-23T09:22:12.473Z,11.21
2023-10-23T09:24:57.506Z,11.77
2023-10-23T09:27:42.563Z,11.75
2023-10-23T09:30:27.462Z,12.18
2023-10-23T09:33:15.593Z,12.01
2023-10-23T09:36:02.029Z,12.24
2023-10-23T09:38:59.217Z,12.00
2023-10-23T09:41:46.633Z,12.31
2023-10-23T09:44:32.134Z,12.33
2023-10-23T09:47:19.480Z,12.23
2023-10-23T09:50:05.595Z,11.91
2023-10-23T09:52:52.157Z,12.26
2023-10-23T09:55:40.941Z,12.54
2023-10-23T09:58:28.132Z,12.56
2023-10-23T10:01:15.338Z,12.82
2023-10-23T10:04:09.921Z,13.05
2023-10-23T10:07:01.149Z,13.19
2023-10-23T10:09:46.489Z,13.22
2023-10-23T10:12:35.464Z,12.85
2023-10-23T10:15:20.912Z,13.15
2023-10-23T10:18:05.958Z,13.34
2023-10-23T10:20:58.711Z,13.59
2023-10-23T10:23:44.473Z,13.43
2023-10-23T10:26:30.723Z,13.49
2023-10-23T10:29:15.841Z,13.62
2023-10-23T10:32:13.461Z,13.22
2023-10-23T10:35:04.559Z,13.43
2023-10-23T10:37:49.841Z,13.50
2023-10-23T10:41:01.006Z,13.80
2023-10-23T10:43:53.995Z,14.02
2023-10-23T10:46:43.160Z,13.98
2023-10-23T10:49:32.681Z,13.46
2023-10-23T10:52:34.089Z,13.86
2023-10-23T10:55:19.191Z,13.72
2023-10-23T10:58:05.384Z,13.67
2023-10-23T11:00:51.115Z,13.54
2023-10-23T11:03:37.934Z,13.51
2023-10-23T11:06:24.552Z,13.41
2023-10-23T11:09:09.981Z,13.52
2023-10-23T11:11:58.318Z,13.57
2023-10-23T11:14:43.434Z,13.58
2023-10-23T11:17:28.480Z,13.63
2023-10-23T11:20:14.664Z,13.75
2023-10-23T11:23:00.693Z,13.96
2023-10-23T11:25:55.406Z,13.79
2023-10-23T11:28:40.236Z,13.98
2023-10-23T11:31:25.662Z,13.92
2023-10-23T11:34:10.783Z,13.94
2023-10-23T11:36:55.878Z,14.10
2023-10-23T11:39:43.307Z,13.74
2023-10-23T11:42:28.475Z,13.89
2023-10-23T11:45:14.890Z,13.77
2023-10-23T11:47:59.901Z,13.88
2023-10-23T11:50:45.584Z,13.94
2023-10-23T11:53:36.910Z,14.07
2023-10-23T11:56:22.095Z,13.83
2023-10-23T11:59:07.183Z,13.75
2023-10-23T12:01:54.002Z,13.98
2023-10-23T12:04:38.872Z,14.22
2023-10-23T12:07:24.062Z,14.14
2023-10-23T12:10:10.814Z,14.30
2023-10-23T12:12:56.456Z,14.22
2023-10-23T12:15:41.671Z,14.39
2023-10-23T12:18:27.443Z,14.63
2023-10-23T12:21:13.513Z,14.28
2023-10-23T12:23:58.374Z,14.32
2023-10-23T12:26:43.354Z,14.63
2023-10-23T12:29:29.093Z,14.43
2023-10-23T12:33:14.204Z,14.58
2023-10-23T12:35:20.819Z,14.83
2023-10-23T12:38:06.302Z,14.90
2023-10-23T12:40:51.299Z,14.70
2023-10-23T12:43:36.553Z,14.32
2023-10-23T12:46:21.526Z,14.48
2023-10-23T12:49:06.419Z,14.42
2023-10-23T12:51:51.818Z,14.42
2023-10-23T12:54:36.929Z,14.39
2023-10-23T12:57:22.700Z,14.50
2023-10-23T13:00:09.102Z,14.43
2023-10-23T13:02:54.157Z,14.37
2023-10-23T13:05:39.615Z,14.55
2023-10-23T13:08:24.471Z,14.37
2023-10-23T13:11:10.017Z,14.34
2023-10-23T13:13:55.328Z,14.32
2023-10-23T13:16:40.489Z,14.60
2023-10-23T13:19:25.671Z,14.52
2023-10-23T13:22:15.483Z,14.55
2023-10-23T13:25:00.566Z,14.46
2023-10-23T13:27:45.500Z,14.63
2023-10-23T13:30:30.464Z,14.62
2023-10-23T13:33:15.491Z,14.63
2023-10-23T13:36:00.469Z,14.71
2023-10-23T13:38:45.395Z,14.67
2023-10-23T13:41:31.147Z,14.65
2023-10-23T13:44:16.450Z,14.59
2023-10-23T13:47:01.800Z,14.63
2023-10-23T13:49:46.496Z,14.61
2023-10-23T13:52:31.731Z,14.75
2023-10-23T13:55:17.000Z,14.67
2023-10-23T13:58:02.125Z,14.67
2023-10-23T14:00:49.124Z,14.63
2023-10-23T14:03:35.302Z,14.65
2023-10-23T14:06:20.395Z,14.61
2023-10-23T14:09:43.533Z,14.53
2023-10-23T14:12:12.438Z,14.57
2023-10-23T14:14:57.328Z,14.57
2023-10-23T14:17:42.232Z,14.46
2023-10-23T14:20:28.675Z,14.60
2023-10-23T14:23:14.042Z,14.50
2023-10-23T14:25:59.302Z,14.38
2023-10-23T14:28:44.364Z,14.29
2023-10-23T14:31:29.505Z,14.29
2023-10-23T14:34:15.346Z,14.27
2023-10-23T14:37:00.405Z,14.27
2023-10-23T14:39:45.603Z,14.34
2023-10-23T14:42:30.781Z,14.41
2023-10-23T14:45:15.834Z,14.40
2023-10-23T14:48:01.082Z,14.34
2023-10-23T14:50:47.235Z,14.36
2023-10-23T14:53:33.134Z,14.22
2023-10-23T14:56:18.347Z,14.25
2023-10-23T14:59:03.579Z,14.13
2023-10-23T15:01:50.276Z,14.22
2023-10-23T15:04:37.308Z,14.19
2023-10-23T15:07:22.818Z,14.15
2023-10-23T15:10:08.159Z,13.95
2023-10-23T15:12:53.472Z,13.98
2023-10-23T15:15:39.097Z,13.97
2023-10-23T15:18:23.954Z,13.85
2023-10-23T15:21:09.553Z,13.85
2023-10-23T15:23:54.454Z,13.69
2023-10-23T15:26:41.354Z,13.70
2023-10-23T15:29:26.451Z,13.59
2023-10-23T15:32:12.556Z,13.38
2023-10-23T15:34:57.614Z,13.31
2023-10-23T15:37:43.860Z,13.30
2023-10-23T15:40:31.083Z,13.24
2023-10-23T15:43:21.629Z,13.22
2023-10-23T15:46:13.064Z,13.19
2023-10-23T15:49:00.212Z,13.09
2023-10-23T15:51:45.021Z,13.07
2023-10-23T15:54:29.925Z,13.00
2023-10-23T15:57:15.220Z,12.98
2023-10-23T16:00:00.296Z,12.98
2023-10-23T16:02:45.899Z,12.90
2023-10-23T16:05:32.312Z,12.93
2023-10-23T16:08:18.385Z,12.93
2023-10-23T16:11:04.465Z,12.94
2023-10-23T16:13:49.595Z,12.84
2023-10-23T16:16:34.703Z,12.66
2023-10-23T16:19:19.875Z,12.78
2023-10-23T16:22:05.506Z,12.76
2023-10-23T16:24:50.807Z,12.82
2023-10-23T16:27:36.282Z,12.90
2023-10-23T16:30:22.284Z,12.78
2023-10-23T16:33:08.433Z,12.94
2023-10-23T16:35:53.410Z,12.87
2023-10-23T16:38:38.541Z,12.76
2023-10-23T16:41:23.774Z,12.87
2023-10-23T16:44:09.379Z,12.73
2023-10-23T16:46:55.000Z,12.74
2023-10-23T16:49:41.134Z,12.60
2023-10-23T16:52:26.422Z,12.57
2023-10-23T16:55:12.051Z,12.58
2023-10-23T16:57:58.666Z,12.50
2023-10-23T17:00:43.728Z,12.70
2023-10-23T17:03:28.957Z,12.57
2023-10-23T17:06:14.044Z,12.65
2023-10-23T17:08:59.336Z,12.50
2023-10-23T17:11:45.203Z,12.65
2023-10-23T17:14:32.351Z,12.51
2023-10-23T17:17:17.338Z,12.52
2023-10-23T17:20:02.148Z,12.52
2023-10-23T17:22:47.565Z,12.71
2023-10-23T17:25:32.855Z,12.44
2023-10-23T17:28:17.800Z,12.61
2023-10-23T17:31:04.416Z,12.53
2023-10-23T17:33:49.608Z,12.54
2023-10-23T17:36:35.625Z,12.42
2023-10-23T17:39:20.896Z,12.56
2023-10-23T17:42:05.858Z,12.53
2023-10-23T17:44:51.298Z,12.45
2023-10-23T17:47:36.342Z,12.47
2023-10-23T17:50:21.172Z,12.47
2023-10-23T17:53:06.527Z,12.52
2023-10-23T17:55:51.842Z,12.39
2023-10-23T17:58:38.088Z,12.50
2023-10-23T18:01:23.114Z,12.36
2023-10-23T18:04:10.839Z,12.59
2023-10-23T18:06:56.912Z,12.38
2023-10-23T18:09:44.563Z,12.37
2023-10-23T18:12:38.127Z,12.48
2023-10-23T18:15:24.144Z,12.45
2023-10-23T18:18:09.403Z,12.34
2023-10-23T18:20:55.300Z,12.57
2023-10-23T18:23:40.747Z,12.39
2023-10-23T18:26:25.899Z,12.32
2023-10-23T18:29:11.232Z,12.48
2023-10-23T18:31:57.153Z,12.42
2023-10-23T18:34:42.425Z,12.36
2023-10-23T18:37:28.084Z,12.47
2023-10-23T18:40:13.692Z,12.40
2023-10-23T18:43:01.307Z,12.46
2023-10-23T18:45:46.628Z,12.45
2023-10-23T18:48:32.757Z,12.37
2023-10-23T18:51:18.853Z,12.51
2023-10-23T18:54:03.839Z,12.47
2023-10-23T18:56:48.977Z,12.49
2023-10-23T18:59:34.195Z,12.54
2023-10-23T19:02:19.409Z,12.44
2023-10-23T19:05:04.663Z,12.44
2023-10-23T19:07:50.234Z,12.37
2023-10-23T19:10:35.678Z,12.47
2023-10-23T19:13:21.124Z,12.47
2023-10-23T19:16:06.318Z,12.54
2023-10-23T19:18:51.498Z,12.46
2023-10-23T19:21:36.725Z,12.43
2023-10-23T19:24:21.977Z,12.45
2023-10-23T19:27:07.012Z,12.41
2023-10-23T19:29:53.816Z,12.48
2023-10-23T19:32:39.426Z,12.47
2023-10-23T19:35:25.401Z,12.37
2023-10-23T19:38:11.131Z,12.53
2023-10-23T19:41:01.598Z,12.51
2023-10-23T19:43:50.574Z,12.42
2023-10-23T19:46:35.889Z,12.51
2023-10-23T19:49:21.396Z,12.49
2023-10-23T19:52:09.707Z,12.36
2023-10-23T19:54:55.433Z,12.51
2023-10-23T19:57:49.991Z,12.47
2023-10-23T20:00:35.694Z,12.58
2023-10-23T20:03:20.590Z,12.55
2023-10-23T20:06:08.892Z,12.53
2023-10-23T20:08:54.141Z,12.50
2023-10-23T20:11:39.331Z,12.55
2023-10-23T20:14:24.508Z,12.56
2023-10-23T20:17:09.503Z,12.56
2023-10-23T20:19:55.159Z,12.47
2023-10-23T20:22:40.187Z,12.57
2023-10-23T20:25:25.795Z,12.68
2023-10-23T20:28:11.187Z,12.63
2023-10-23T20:30:56.669Z,12.57
2023-10-23T20:33:42.020Z,12.65
2023-10-23T20:36:27.428Z,12.59
2023-10-23T20:39:12.561Z,12.65
2023-10-23T20:41:57.949Z,12.59
2023-10-23T20:44:42.882Z,12.60
2023-10-23T20:47:28.220Z,12.62
2023-10-23T20:50:13.375Z,12.50
2023-10-23T20:52:58.410Z,12.54
2023-10-23T20:55:43.502Z,12.60
2023-10-23T20:58:28.475Z,12.64
2023-10-23T21:01:14.019Z,12.64
2023-10-23T21:03:59.427Z,12.68
2023-10-23T21:06:44.323Z,12.60
2023-10-23T21:09:30.029Z,12.65
2023-10-23T21:12:14.994Z,12.71
2023-10-23T21:14:59.916Z,12.75
2023-10-23T21:17:44.850Z,12.64
2023-10-23T21:20:29.803Z,12.71
2023-10-23T21:23:14.818Z,12.62
2023-10-23T21:26:07.684Z,12.68
2023-10-23T21:28:52.658Z,12.64
2023-10-23T21:31:37.977Z,12.64
2023-10-23T21:34:23.450Z,12.66
2023-10-23T21:37:08.565Z,12.76
2023-10-23T21:39:53.516Z,12.76
2023-10-23T21:42:40.083Z,12.73
2023-10-23T21:45:27.772Z,12.68
2023-10-23T21:48:13.145Z,12.77
2023-10-23T21:50:58.338Z,12.71
2023-10-23T21:53:43.589Z,12.72
2023-10-23T21:57:19.111Z,12.76
2023-10-23T21:59:35.297Z,12.77
2023-10-23T22:02:20.756Z,12.66
2023-10-23T22:05:06.032Z,12.83
2023-10-23T22:07:52.506Z,12.82
2023-10-23T22:10:38.057Z,12.88
2023-10-23T22:13:23.449Z,12.91
2023-10-23T22:16:08.727Z,12.98
2023-10-23T22:18:53.479Z,12.99
2023-10-23T22:21:38.598Z,12.96
2023-10-23T22:24:23.450Z,13.02
2023-10-23T22:27:08.448Z,13.08
2023-10-23T22:29:53.314Z,13.07
2023-10-23T22:32:38.855Z,12.98
2023-10-23T22:35:23.884Z,12.96
2023-10-23T22:38:10.167Z,12.93
2023-10-23T22:40:55.385Z,12.96
2023-10-23T22:43:40.309Z,12.96
2023-10-23T22:46:25.301Z,12.93
2023-10-23T22:49:10.157Z,12.86
2023-10-23T22:51:55.601Z,12.87
2023-10-23T22:54:41.686Z,12.87
2023-10-23T22:57:27.042Z,12.89
2023-10-23T23:00:14.153Z,12.95
2023-10-23T23:02:59.224Z,12.94
2023-10-23T23:05:46.069Z,12.95
2023-10-23T23:08:37.615Z,12.99
2023-10-23T23:11:23.153Z,12.90
2023-10-23T23:14:08.422Z,12.92
2023-10-23T23:17:00.692Z,12.91
2023-10-23T23:19:50.567Z,12.94
2023-10-23T23:22:35.925Z,12.92
2023-10-23T23:25:20.931Z,12.97
2023-10-23T23:28:05.853Z,13.03
2023-10-23T23:30:50.752Z,13.15
2023-10-23T23:33:35.980Z,13.03
2023-10-23T23:36:21.249Z,12.99
2023-10-23T23:39:06.420Z,13.05
2023-10-23T23:41:51.845Z,13.02
2023-10-23T23:44:36.868Z,12.99
2023-10-23T23:47:22.079Z,13.02
2023-10-23T23:50:07.425Z,12.93
2023-10-23T23:52:52.415Z,12.97
2023-10-23T23:55:38.131Z,12.96
2023-10-23T23:58:26.034Z,12.87
